Morningdale, Massachusetts
Current Conditions -  °F | °C
As of 2:54 PM on Thursday 23 Oct 2014 (Local Time) from KORH Reporting Station
Light Rain Light Rain  
Wind Chill: 50°   Ceiling: 600
Heat Index: 50°   Visibility: 1mi
Dew Point: 48°   Wind: 17mph
Humidity: 93%   Direction: 10°N
Pressure: 29.63"   Gusts: 28mph
Location:  42.3502°N, 71.718°W
Report Text: KORH 231854Z 01015G24KT 1SM R11/P6000FT -RA BR BKN006 OVC012 10/09 A2963 RMK AO2 SFC VIS 2 RAE09B18 SLP036 P0001 T01000089
Loading
Personal Weather Stations






























Interactive Weather Map
Tropical Storm Tracking
New forecast layout! Learn more

10-Day Weather Forecast

Advertisements
Track Severe Weather on mobile